Time;durP1;ratioP1;P1;durP2;ratioP2;P2;SDS_P1;SDS_P2;PMS_P1;PMS_P2;Temp;Humidity;BMP_temperature;BMP_pressure;BME280_temperature;BME280_humidity;BME280_pressure;Samples;Min_cycle;Max_cycle;Signal;HPM_P1;HPM_P2
2022/09/23 00:01:37;;;;;;;10.07;5.90;;;10.40;72.50;;;;;;5044117;28;20520;-76
2022/09/23 00:04:05;;;;;;;12.30;5.53;;;10.40;72.40;;;;;;5044485;28;20471;-76
2022/09/23 00:06:33;;;;;;;9.33;5.60;;;10.40;72.40;;;;;;5044503;28;21389;-77
2022/09/23 00:09:00;;;;;;;11.63;6.53;;;10.40;72.30;;;;;;5053173;28;21306;-76
2022/09/23 00:11:30;;;;;;;12.80;6.97;;;10.30;72.30;;;;;;5044091;28;20900;-76
2022/09/23 00:13:59;;;;;;;13.13;7.70;;;10.30;72.30;;;;;;5043940;28;20482;-76
2022/09/23 00:16:31;;;;;;;14.67;7.57;;;10.20;72.30;;;;;;5043652;28;20521;-76
2022/09/23 00:18:59;;;;;;;13.27;8.00;;;10.20;72.30;;;;;;5042340;28;20474;-76
2022/09/23 00:21:28;;;;;;;14.13;8.70;;;10.20;72.30;;;;;;5043069;28;20482;-76
2022/09/23 00:23:56;;;;;;;14.83;8.20;;;10.10;72.30;;;;;;5052733;28;20544;-76
2022/09/23 00:26:24;;;;;;;10.90;7.33;;;10.10;72.50;;;;;;5042304;28;20466;-76
2022/09/23 00:28:53;;;;;;;14.97;8.63;;;10.10;72.50;;;;;;5042996;28;20537;-75
2022/09/23 00:31:23;;;;;;;11.47;6.87;;;10.10;72.60;;;;;;5037626;28;21074;-76
2022/09/23 00:33:55;;;;;;;12.50;8.00;;;10.10;72.60;;;;;;5041988;28;20518;-76
2022/09/23 00:36:24;;;;;;;13.20;7.57;;;10.10;72.60;;;;;;5044067;28;20463;-76
2022/09/23 00:38:52;;;;;;;12.83;7.40;;;10.10;72.70;;;;;;5046252;28;20451;-77
2022/09/23 00:41:21;;;;;;;13.40;7.97;;;10.10;72.60;;;;;;5039547;28;20547;-76
2022/09/23 00:43:51;;;;;;;12.70;7.00;;;10.00;72.50;;;;;;5040685;28;20611;-75
2022/09/23 00:46:23;;;;;;;11.50;6.90;;;10.00;72.40;;;;;;5043532;28;20543;-76
2022/09/23 00:48:56;;;;;;;12.70;7.17;;;9.80;72.40;;;;;;5042528;28;20466;-77
2022/09/23 00:51:29;;;;;;;13.47;6.60;;;9.80;72.50;;;;;;5039527;28;20544;-76
2022/09/23 00:53:57;;;;;;;12.03;6.20;;;9.80;72.70;;;;;;5042517;28;20484;-76
2022/09/23 00:56:25;;;;;;;10.93;7.03;;;9.80;72.80;;;;;;5040679;28;20561;-76
2022/09/23 00:58:54;;;;;;;12.27;6.90;;;9.80;72.80;;;;;;5043294;28;20459;-76
2022/09/23 01:01:25;;;;;;;10.60;6.50;;;9.80;72.80;;;;;;5040789;28;20971;-74
2022/09/23 01:03:55;;;;;;;10.80;6.57;;;9.80;72.80;;;;;;5044474;28;20475;-74
2022/09/23 01:06:22;;;;;;;11.57;7.30;;;9.80;72.70;;;;;;5042507;28;20478;-75
2022/09/23 01:08:51;;;;;;;10.87;6.43;;;9.80;72.70;;;;;;5041215;28;20466;-77
2022/09/23 01:11:37;;;;;;;10.73;6.80;;;9.80;72.80;;;;;;5039066;28;20502;-75
2022/09/23 01:14:23;;;;;;;9.27;6.70;;;9.80;72.80;;;;;;5041908;28;20965;-76
2022/09/23 01:16:58;;;;;;;9.20;6.20;;;9.70;72.80;;;;;;5047862;28;20466;-77
2022/09/23 01:20:01;;;;;;;10.80;5.07;;;9.70;72.70;;;;;;5038921;28;20466;-75
2022/09/23 01:22:36;;;;;;;9.13;6.03;;;9.70;72.70;;;;;;5044021;28;20474;-74
2022/09/23 01:25:30;;;;;;;8.20;5.60;;;9.70;72.80;;;;;;5041888;28;21424;-76
2022/09/23 01:28:20;;;;;;;8.40;5.03;;;9.60;72.80;;;;;;5041784;28;20527;-76
2022/09/23 01:30:57;;;;;;;10.13;5.50;;;9.60;72.80;;;;;;5043138;28;20557;-77
2022/09/23 01:33:35;;;;;;;6.57;4.60;;;9.60;72.70;;;;;;5042542;28;20483;-75
2022/09/23 01:36:11;;;;;;;9.30;6.00;;;9.50;72.80;;;;;;5047441;28;21309;-75
2022/09/23 01:38:49;;;;;;;8.77;5.17;;;9.50;72.80;;;;;;5043307;28;20455;-76
2022/09/23 01:41:33;;;;;;;8.30;5.30;;;9.50;72.80;;;;;;5044020;28;20504;-76
2022/09/23 01:44:07;;;;;;;14.37;6.43;;;9.50;72.80;;;;;;5046299;28;20482;-76
2022/09/23 01:46:42;;;;;;;7.15;5.10;;;9.40;72.80;;;;;;5044607;28;20527;-76
2022/09/23 01:49:16;;;;;;;8.20;5.50;;;9.40;72.80;;;;;;5045713;28;20226;-76
2022/09/23 01:51:47;;;;;;;8.20;5.73;;;9.40;72.90;;;;;;5042756;28;20862;-76
2022/09/23 01:54:22;;;;;;;8.63;5.10;;;9.40;72.90;;;;;;5047697;28;20879;-77
2022/09/23 01:56:53;;;;;;;8.70;5.40;;;9.30;72.90;;;;;;5040465;28;20443;-77
2022/09/23 01:59:26;;;;;;;8.30;5.10;;;9.30;72.80;;;;;;5042305;28;20470;-76
2022/09/23 02:02:01;;;;;;;7.23;4.63;;;9.30;72.90;;;;;;5046533;28;20475;-76
2022/09/23 02:04:35;;;;;;;9.37;5.17;;;9.30;73.00;;;;;;5047099;28;20461;-76
2022/09/23 02:07:09;;;;;;;8.03;5.17;;;9.30;73.00;;;;;;5046860;28;20510;-77
2022/09/23 02:09:42;;;;;;;7.57;4.88;;;9.30;73.10;;;;;;5045409;28;20860;-77
2022/09/23 02:12:14;;;;;;;10.50;5.10;;;9.30;73.10;;;;;;5047075;28;20192;-76
2022/09/23 02:14:47;;;;;;;7.13;4.57;;;9.30;73.10;;;;;;5043491;28;21099;-76
2022/09/23 02:17:22;;;;;;;8.57;4.72;;;9.30;73.00;;;;;;5045286;28;20486;-76
2022/09/23 02:19:57;;;;;;;6.80;5.00;;;9.30;72.90;;;;;;5059590;28;20302;-76
2022/09/23 02:22:29;;;;;;;8.20;4.95;;;9.30;72.90;;;;;;5054304;28;20475;-76
2022/09/23 02:24:58;;;;;;;7.43;4.88;;;9.30;72.80;;;;;;5046420;28;20301;-77
2022/09/23 02:27:31;;;;;;;8.00;5.40;;;9.20;72.80;;;;;;5044079;28;20651;-77
2022/09/23 02:30:08;;;;;;;11.10;5.27;;;9.20;72.90;;;;;;5044466;28;20956;-76
2022/09/23 02:32:48;;;;;;;7.60;4.80;;;9.20;72.90;;;;;;5038528;28;20463;-76
2022/09/23 02:35:23;;;;;;;8.57;5.75;;;9.20;72.80;;;;;;5047798;28;20552;-76
2022/09/23 02:38:01;;;;;;;7.40;5.40;;;9.20;72.70;;;;;;5042600;28;20315;-76
2022/09/23 02:40:37;;;;;;;8.13;5.28;;;9.10;72.60;;;;;;5043748;28;20197;-76
2022/09/23 02:43:10;;;;;;;7.90;5.18;;;9.10;72.70;;;;;;5045105;28;20212;-76
2022/09/23 02:45:38;;;;;;;7.32;4.80;;;9.00;72.70;;;;;;5041584;28;20705;-76
2022/09/23 02:48:13;;;;;;;8.00;5.22;;;9.00;72.80;;;;;;5043892;28;20197;-76
2022/09/23 02:50:42;;;;;;;7.33;5.13;;;9.00;72.90;;;;;;5043540;28;20211;-76
2022/09/23 02:53:10;;;;;;;9.82;4.95;;;9.00;73.00;;;;;;5039267;28;20469;-76
2022/09/23 02:55:40;;;;;;;7.57;4.90;;;9.00;73.00;;;;;;5042421;28;20796;-77
2022/09/23 02:58:09;;;;;;;7.20;4.90;;;9.00;73.00;;;;;;5054761;28;20205;-76
2022/09/23 03:00:48;;;;;;;9.05;4.93;;;9.00;72.90;;;;;;5043460;28;20299;-76
2022/09/23 03:03:36;;;;;;;9.27;4.80;;;9.00;72.90;;;;;;5042158;28;20204;-75
2022/09/23 03:06:14;;;;;;;10.95;5.63;;;9.00;72.90;;;;;;5038564;28;20753;-77
2022/09/23 03:08:49;;;;;;;7.45;5.10;;;9.00;72.90;;;;;;5043241;28;20732;-78
2022/09/23 03:11:17;;;;;;;8.52;4.88;;;8.90;72.80;;;;;;5046137;28;20223;-75
2022/09/23 03:14:03;;;;;;;12.60;4.63;;;8.90;72.80;;;;;;5038801;28;20733;-76
2022/09/23 03:16:41;;;;;;;7.93;4.75;;;8.90;72.80;;;;;;5044889;28;20211;-76
2022/09/23 03:19:22;;;;;;;8.07;4.50;;;8.90;72.80;;;;;;5043879;28;20925;-77
2022/09/23 03:21:59;;;;;;;6.93;4.93;;;8.90;72.80;;;;;;5045710;28;20200;-75
2022/09/23 03:24:30;;;;;;;7.75;5.13;;;8.90;72.80;;;;;;5045627;28;20630;-76
2022/09/23 03:27:01;;;;;;;8.35;5.22;;;8.90;72.70;;;;;;5047099;28;20732;-75
2022/09/23 03:29:31;;;;;;;7.22;4.82;;;8.80;72.70;;;;;;5044046;28;20270;-76
2022/09/23 03:31:59;;;;;;;6.75;4.53;;;8.80;72.70;;;;;;5046190;28;20227;-75
2022/09/23 03:34:31;;;;;;;7.60;4.47;;;8.80;72.70;;;;;;5043573;28;20224;-75
2022/09/23 03:37:06;;;;;;;10.18;4.90;;;8.80;72.70;;;;;;5054353;28;20209;-76
2022/09/23 03:39:39;;;;;;;7.63;4.20;;;8.80;72.70;;;;;;5045578;28;20762;-76
2022/09/23 03:42:12;;;;;;;6.95;4.40;;;8.70;72.70;;;;;;5044595;28;20212;-77
2022/09/23 03:44:44;;;;;;;7.50;4.75;;;8.70;72.70;;;;;;5044165;28;20306;-76
2022/09/23 03:47:13;;;;;;;6.78;4.88;;;8.70;72.60;;;;;;5044269;28;20197;-76
2022/09/23 03:49:47;;;;;;;6.38;4.47;;;8.70;72.60;;;;;;5045547;28;20203;-76
2022/09/23 03:52:15;;;;;;;8.07;4.65;;;8.70;72.60;;;;;;5044546;28;20586;-75
2022/09/23 03:54:43;;;;;;;8.52;4.50;;;8.70;72.50;;;;;;5046538;28;20216;-77
2022/09/23 03:57:12;;;;;;;8.63;5.13;;;8.70;72.50;;;;;;5044197;28;20223;-77
2022/09/23 03:59:40;;;;;;;7.88;4.88;;;8.60;72.40;;;;;;5043797;28;20670;-77
2022/09/23 04:02:08;;;;;;;8.60;5.00;;;8.60;72.40;;;;;;5043716;28;20736;-76
2022/09/23 04:04:37;;;;;;;7.55;5.25;;;8.50;72.30;;;;;;5041805;28;20245;-77
2022/09/23 04:07:07;;;;;;;8.57;5.00;;;8.50;72.20;;;;;;5043153;28;20299;-76
2022/09/23 04:09:35;;;;;;;7.20;4.97;;;8.40;72.40;;;;;;5041596;28;20292;-76
2022/09/23 04:12:04;;;;;;;7.90;5.00;;;8.40;72.50;;;;;;5042630;28;20262;-75
2022/09/23 04:14:32;;;;;;;7.80;5.20;;;8.40;72.50;;;;;;5042138;28;20229;-78
2022/09/23 04:17:00;;;;;;;6.78;4.82;;;8.30;72.70;;;;;;5044500;28;20257;-75
2022/09/23 04:19:28;;;;;;;8.57;5.53;;;8.30;72.70;;;;;;5041516;28;20237;-75
2022/09/23 04:21:56;;;;;;;8.65;5.32;;;8.30;72.80;;;;;;5059971;28;20729;-76
2022/09/23 04:24:25;;;;;;;8.13;5.00;;;8.40;72.70;;;;;;5042082;28;20231;-76
2022/09/23 04:26:54;;;;;;;11.02;5.55;;;8.40;72.60;;;;;;5044031;28;20235;-76
2022/09/23 04:29:23;;;;;;;9.00;5.68;;;8.40;72.60;;;;;;5042053;28;20261;-76
2022/09/23 04:31:52;;;;;;;9.35;5.13;;;8.40;72.70;;;;;;5044379;28;20219;-77
2022/09/23 04:34:21;;;;;;;6.75;4.72;;;8.40;72.70;;;;;;5045155;28;20227;-76
2022/09/23 04:36:49;;;;;;;7.80;5.15;;;8.30;72.80;;;;;;5042652;28;20258;-76
2022/09/23 04:39:18;;;;;;;7.40;4.80;;;8.30;72.80;;;;;;5043338;28;20494;-77
2022/09/23 04:41:47;;;;;;;8.40;5.50;;;8.30;72.70;;;;;;5042440;28;20205;-77
2022/09/23 04:44:15;;;;;;;8.48;5.90;;;8.30;72.70;;;;;;5040758;28;20240;-77
2022/09/23 04:46:46;;;;;;;9.30;5.10;;;8.30;72.70;;;;;;5046063;28;20200;-77
2022/09/23 04:49:15;;;;;;;7.30;5.00;;;8.30;72.70;;;;;;5050656;28;20287;-75
2022/09/23 04:51:43;;;;;;;7.80;5.35;;;8.30;72.70;;;;;;5043575;28;20219;-76
2022/09/23 04:54:13;;;;;;;9.05;5.30;;;8.30;72.60;;;;;;5047562;28;20774;-77
2022/09/23 04:56:41;;;;;;;8.82;5.72;;;8.20;72.70;;;;;;5044624;28;20196;-76
2022/09/23 04:59:11;;;;;;;7.47;5.30;;;8.20;72.70;;;;;;5044465;28;20197;-75
2022/09/23 05:01:39;;;;;;;8.15;5.25;;;8.20;72.60;;;;;;5040045;28;20223;-76
2022/09/23 05:04:12;;;;;;;11.05;6.13;;;8.20;72.60;;;;;;5039880;28;20271;-77
2022/09/23 05:06:43;;;;;;;9.35;6.43;;;8.20;72.60;;;;;;5046430;28;20328;-74
2022/09/23 05:09:16;;;;;;;8.23;5.38;;;8.10;72.50;;;;;;5045814;28;20205;-76
2022/09/23 05:11:45;;;;;;;9.30;5.85;;;8.10;72.60;;;;;;5044669;28;20285;-75
2022/09/23 05:14:14;;;;;;;9.02;5.72;;;8.10;72.60;;;;;;5043209;28;20623;-77
2022/09/23 05:16:42;;;;;;;10.25;5.55;;;8.00;72.60;;;;;;5046061;28;20200;-76
2022/09/23 05:19:12;;;;;;;10.02;5.85;;;8.10;72.80;;;;;;5046558;28;21100;-78
2022/09/23 05:21:40;;;;;;;7.95;5.50;;;8.10;72.90;;;;;;5047122;28;20989;-78
2022/09/23 05:24:08;;;;;;;8.20;5.35;;;8.10;72.90;;;;;;5048465;28;20232;-76
2022/09/23 05:26:37;;;;;;;9.13;5.32;;;8.10;73.00;;;;;;5044774;28;20886;-78
2022/09/23 05:29:05;;;;;;;9.70;5.50;;;8.10;73.00;;;;;;5048009;28;20667;-76
2022/09/23 05:31:35;;;;;;;9.60;5.13;;;8.20;73.00;;;;;;5049387;28;20874;-78
2022/09/23 05:34:05;;;;;;;8.85;5.85;;;8.20;73.00;;;;;;5045403;28;20219;-77
2022/09/23 05:36:35;;;;;;;8.48;4.88;;;8.20;73.00;;;;;;5050499;28;20200;-76
2022/09/23 05:39:06;;;;;;;8.82;5.65;;;8.30;72.90;;;;;;5045218;28;20211;-76
2022/09/23 05:41:36;;;;;;;8.52;6.18;;;8.30;72.90;;;;;;5048433;28;20209;-76
2022/09/23 05:44:04;;;;;;;11.63;5.95;;;8.30;72.90;;;;;;5047222;28;20225;-76
2022/09/23 05:46:33;;;;;;;11.45;5.90;;;8.30;72.90;;;;;;5050035;28;20250;-75
2022/09/23 05:49:03;;;;;;;11.10;5.70;;;8.30;72.90;;;;;;5043349;28;20208;-76
2022/09/23 05:51:33;;;;;;;11.27;5.85;;;8.30;72.80;;;;;;5049257;28;20209;-76
2022/09/23 05:54:02;;;;;;;11.32;6.45;;;8.30;72.90;;;;;;5051654;28;20232;-76
2022/09/23 05:56:32;;;;;;;11.00;6.90;;;8.30;73.00;;;;;;5048569;28;20228;-76
2022/09/23 05:59:02;;;;;;;13.88;7.30;;;8.40;72.90;;;;;;5042495;28;20212;-75
2022/09/23 06:01:33;;;;;;;12.25;7.45;;;8.40;72.90;;;;;;5047198;28;20311;-76
2022/09/23 06:04:04;;;;;;;16.38;6.95;;;8.40;72.90;;;;;;5046390;28;20274;-76
2022/09/23 06:06:34;;;;;;;10.20;7.60;;;8.50;73.00;;;;;;5045981;28;20199;-76
2022/09/23 06:09:03;;;;;;;14.70;7.20;;;8.50;73.00;;;;;;5047648;28;20208;-77
2022/09/23 06:11:32;;;;;;;10.20;7.33;;;8.50;73.00;;;;;;5044613;28;20237;-76
2022/09/23 06:14:01;;;;;;;14.70;9.27;;;8.60;73.10;;;;;;5063219;28;20482;-76
2022/09/23 06:16:31;;;;;;;26.55;11.85;;;8.60;73.10;;;;;;5043300;28;20455;-76
2022/09/23 06:19:04;;;;;;;14.20;11.30;;;8.60;73.10;;;;;;5045378;28;20697;-77
2022/09/23 06:21:36;;;;;;;16.40;9.57;;;8.70;73.10;;;;;;5046120;28;20796;-77
2022/09/23 06:24:05;;;;;;;12.98;9.15;;;8.70;73.20;;;;;;5046387;28;20221;-76
2022/09/23 06:26:34;;;;;;;15.80;9.40;;;8.70;73.30;;;;;;5044417;28;20196;-76
2022/09/23 06:29:03;;;;;;;11.73;8.77;;;8.80;73.30;;;;;;5047145;28;20224;-76
2022/09/23 06:31:31;;;;;;;14.57;8.75;;;8.80;73.40;;;;;;5048866;28;20212;-77
2022/09/23 06:33:59;;;;;;;13.75;9.05;;;8.90;73.50;;;;;;5045129;28;20229;-77
2022/09/23 06:36:41;;;;;;;15.50;9.40;;;8.90;73.60;;;;;;5042426;28;20289;-77
2022/09/23 06:39:14;;;;;;;13.50;9.00;;;9.00;73.60;;;;;;5045664;28;21070;-78
2022/09/23 06:41:42;;;;;;;11.23;8.33;;;9.00;73.70;;;;;;5044920;28;20311;-77
2022/09/23 06:44:13;;;;;;;12.00;8.90;;;9.00;73.80;;;;;;5046154;28;21178;-76
2022/09/23 06:46:41;;;;;;;11.40;8.60;;;9.10;73.90;;;;;;5043878;28;20833;-75
2022/09/23 06:49:12;;;;;;;16.23;9.30;;;9.10;74.00;;;;;;5048081;28;20507;-75
2022/09/23 06:51:41;;;;;;;13.25;9.55;;;9.20;74.10;;;;;;5044342;28;20551;-77
2022/09/23 06:54:09;;;;;;;14.90;10.27;;;9.20;74.20;;;;;;5041167;28;20220;-76
2022/09/23 06:56:37;;;;;;;16.87;12.10;;;9.30;74.20;;;;;;5046941;28;21102;-77
2022/09/23 06:59:07;;;;;;;17.83;10.83;;;9.30;74.30;;;;;;5048602;28;20483;-76
2022/09/23 07:01:35;;;;;;;15.00;11.20;;;9.40;74.40;;;;;;5045236;28;20521;-76
2022/09/23 07:04:04;;;;;;;15.88;10.82;;;9.40;74.50;;;;;;5041491;28;20494;-77
2022/09/23 07:06:32;;;;;;;16.55;12.48;;;9.50;74.60;;;;;;5043134;28;20228;-78
2022/09/23 07:09:02;;;;;;;14.30;11.60;;;9.60;74.60;;;;;;5044831;28;20252;-78
2022/09/23 07:11:30;;;;;;;16.83;11.83;;;9.60;74.70;;;;;;5041532;28;20493;-78
2022/09/23 07:13:57;;;;;;;16.60;11.60;;;9.70;74.80;;;;;;5044443;28;20482;-78
2022/09/23 07:16:25;;;;;;;17.63;12.50;;;9.70;74.90;;;;;;5040497;28;20459;-78
2022/09/23 07:18:54;;;;;;;17.97;12.17;;;9.80;75.00;;;;;;5044931;28;20553;-78
2022/09/23 07:21:23;;;;;;;14.67;11.43;;;9.80;75.10;;;;;;5044642;28;20467;-77
2022/09/23 07:23:51;;;;;;;16.83;12.37;;;9.90;75.20;;;;;;5046236;28;21317;-78
2022/09/23 07:26:21;;;;;;;15.50;11.70;;;10.00;75.30;;;;;;5045259;28;21185;-78
2022/09/23 07:28:54;;;;;;;16.33;11.60;;;10.00;75.40;;;;;;5046129;28;21033;-79
2022/09/23 07:31:22;;;;;;;20.93;12.20;;;10.10;75.50;;;;;;5042543;28;20514;-79
2022/09/23 07:34:05;;;;;;;14.07;10.87;;;10.10;75.50;;;;;;5046332;28;21019;-77
2022/09/23 07:36:36;;;;;;;13.80;10.17;;;10.20;75.60;;;;;;5045044;28;20466;-77
2022/09/23 07:39:04;;;;;;;16.57;10.87;;;10.20;75.70;;;;;;5045367;28;20451;-78
2022/09/23 07:41:34;;;;;;;15.83;10.93;;;10.30;75.80;;;;;;5046471;28;20462;-79
2022/09/23 07:44:03;;;;;;;14.90;10.60;;;10.40;76.00;;;;;;5041967;28;20576;-77
2022/09/23 07:46:33;;;;;;;14.00;10.57;;;10.40;76.00;;;;;;5045353;28;20483;-79
2022/09/23 07:49:02;;;;;;;16.47;11.47;;;10.50;76.10;;;;;;5040861;28;20463;-79
2022/09/23 07:51:32;;;;;;;15.60;9.90;;;10.60;76.20;;;;;;5041473;28;20540;-78
2022/09/23 07:54:06;;;;;;;15.30;10.60;;;10.60;76.30;;;;;;5046033;28;20471;-76
2022/09/23 07:56:37;;;;;;;17.10;12.20;;;10.70;76.40;;;;;;5039384;28;20463;-77
2022/09/23 07:59:07;;;;;;;13.87;10.70;;;10.80;76.40;;;;;;5044794;28;20557;-75
2022/09/23 08:01:37;;;;;;;15.53;11.90;;;10.80;76.50;;;;;;5041709;28;20980;-75
2022/09/23 08:04:07;;;;;;;15.20;10.70;;;10.90;76.40;;;;;;5045200;28;20487;-77
2022/09/23 08:06:39;;;;;;;14.90;9.27;;;10.90;76.50;;;;;;5042212;28;20906;-75
2022/09/23 08:09:08;;;;;;;17.80;10.30;;;11.00;76.50;;;;;;5046488;28;20452;-76
2022/09/23 08:11:38;;;;;;;11.50;8.93;;;11.00;76.50;;;;;;5043164;28;20454;-76
2022/09/23 08:14:07;;;;;;;13.57;9.60;;;11.10;76.50;;;;;;5046143;28;20473;-76
2022/09/23 08:16:36;;;;;;;13.67;10.40;;;11.10;76.50;;;;;;5045939;28;20501;-76
2022/09/23 08:19:03;;;;;;;14.30;10.30;;;11.10;76.70;;;;;;5042892;28;20458;-76
2022/09/23 08:21:38;;;;;;;12.60;8.87;;;11.20;76.60;;;;;;5045028;28;20459;-76
2022/09/23 08:24:06;;;;;;;15.00;9.37;;;11.20;76.70;;;;;;5046170;28;20470;-76
2022/09/23 08:26:34;;;;;;;14.10;9.60;;;11.30;76.80;;;;;;5040054;28;20482;-76
2022/09/23 08:29:04;;;;;;;14.07;9.70;;;11.40;76.80;;;;;;5039126;28;20467;-76
2022/09/23 08:31:32;;;;;;;12.57;9.70;;;11.50;76.80;;;;;;5038961;28;20467;-75
2022/09/23 08:34:00;;;;;;;15.20;10.30;;;11.50;76.60;;;;;;5043117;28;20482;-75
2022/09/23 08:36:27;;;;;;;15.77;11.03;;;11.50;76.70;;;;;;5034328;28;20475;-78
2022/09/23 08:38:56;;;;;;;32.57;25.97;;;11.60;76.70;;;;;;5042637;28;20489;-77
2022/09/23 08:41:33;;;;;;;19.77;13.57;;;11.60;76.80;;;;;;5042657;28;20467;-77
2022/09/23 08:44:10;;;;;;;19.90;13.00;;;11.60;76.80;;;;;;5047791;28;20474;-77
2022/09/23 08:46:43;;;;;;;18.07;11.40;;;11.70;76.90;;;;;;5050479;28;20485;-76
2022/09/23 08:49:17;;;;;;;21.20;12.00;;;11.70;76.90;;;;;;5047076;28;20474;-76
2022/09/23 08:51:47;;;;;;;19.30;11.60;;;11.80;77.00;;;;;;5048168;28;20504;-76
2022/09/23 08:54:17;;;;;;;15.67;11.00;;;11.80;77.00;;;;;;5049182;28;21022;-76
2022/09/23 08:56:50;;;;;;;23.50;10.57;;;11.80;77.10;;;;;;5049158;28;20485;-77
2022/09/23 08:59:27;;;;;;;16.23;10.40;;;11.90;77.10;;;;;;5048765;28;20455;-77
2022/09/23 09:01:59;;;;;;;38.60;11.40;;;11.90;77.20;;;;;;5047444;28;20470;-75
2022/09/23 09:04:38;;;;;;;23.70;10.70;;;11.90;77.20;;;;;;5049361;28;20528;-75
2022/09/23 09:07:15;;;;;;;19.03;10.33;;;12.00;77.30;;;;;;5050906;28;20504;-76
2022/09/23 09:10:06;;;;;;;24.33;11.87;;;12.00;77.30;;;;;;5047101;28;20474;-76
2022/09/23 09:12:41;;;;;;;20.37;10.00;;;12.10;77.30;;;;;;5046772;28;20465;-76
2022/09/23 09:15:14;;;;;;;18.87;10.83;;;12.20;77.50;;;;;;5043412;28;20525;-75
2022/09/23 09:17:55;;;;;;;19.10;10.17;;;12.20;77.40;;;;;;5050276;28;20446;-75
2022/09/23 09:20:29;;;;;;;28.27;10.90;;;12.30;77.50;;;;;;5045719;28;20458;-75
2022/09/23 09:22:59;;;;;;;21.33;10.40;;;12.30;77.50;;;;;;5046126;28;20543;-76
2022/09/23 09:25:41;;;;;;;24.30;10.80;;;12.40;77.60;;;;;;5049328;28;20537;-75
2022/09/23 09:28:17;;;;;;;15.23;10.20;;;12.50;77.70;;;;;;5046617;28;20466;-75
2022/09/23 09:30:52;;;;;;;22.93;8.80;;;12.50;77.70;;;;;;5047163;28;20537;-76
2022/09/23 09:33:27;;;;;;;16.07;8.87;;;12.60;77.70;;;;;;5045189;28;20991;-76
2022/09/23 09:36:11;;;;;;;28.50;9.47;;;12.70;77.70;;;;;;5058928;28;20470;-76
2022/09/23 09:38:39;;;;;;;19.33;9.87;;;12.80;77.70;;;;;;5048349;28;20458;-76
2022/09/23 09:41:14;;;;;;;17.73;10.33;;;12.80;77.60;;;;;;5045786;28;20470;-75
2022/09/23 09:43:51;;;;;;;20.20;11.30;;;12.90;77.70;;;;;;5046278;28;20482;-76
2022/09/23 09:46:50;;;;;;;14.93;9.40;;;13.00;77.70;;;;;;5050593;28;20483;-77
2022/09/23 09:49:27;;;;;;;16.43;8.20;;;13.10;77.80;;;;;;5046204;28;20515;-76
2022/09/23 09:52:20;;;;;;;11.53;7.40;;;13.10;77.80;;;;;;5045377;28;20971;-77
2022/09/23 09:54:49;;;;;;;27.53;8.73;;;13.20;77.70;;;;;;5044507;28;20506;-77
2022/09/23 09:57:30;;;;;;;220.27;23.70;;;13.30;77.70;;;;;;5047279;28;20463;-77
2022/09/23 10:00:34;;;;;;;119.83;15.80;;;13.40;77.60;;;;;;5046673;28;20454;-75
2022/09/23 10:03:19;;;;;;;25.87;8.40;;;13.40;77.70;;;;;;5046940;28;20524;-76
2022/09/23 10:05:51;;;;;;;11.03;7.13;;;13.50;77.50;;;;;;5045195;28;21000;-75
2022/09/23 10:08:26;;;;;;;27.00;7.33;;;13.50;77.40;;;;;;5046195;28;20573;-78
2022/09/23 10:11:02;;;;;;;14.80;7.80;;;13.60;77.20;;;;;;5044730;28;20505;-77
2022/09/23 10:13:31;;;;;;;11.40;6.20;;;13.70;77.10;;;;;;5046036;28;20448;-77
2022/09/23 10:16:02;;;;;;;13.23;6.23;;;13.70;77.10;;;;;;5042223;28;20537;-79
2022/09/23 10:18:36;;;;;;;11.60;5.87;;;13.80;77.10;;;;;;5049095;28;20460;-79
2022/09/23 10:21:08;;;;;;;9.43;6.20;;;13.80;77.00;;;;;;5046697;28;20455;-77
2022/09/23 10:23:40;;;;;;;8.67;5.40;;;13.90;76.90;;;;;;5046312;28;20483;-78
2022/09/23 10:26:09;;;;;;;8.43;4.73;;;14.00;76.70;;;;;;5044284;28;20463;-78
2022/09/23 10:28:41;;;;;;;7.73;4.83;;;14.00;76.50;;;;;;5044204;28;20485;-78
2022/09/23 10:31:12;;;;;;;10.90;5.70;;;14.00;76.30;;;;;;5046270;28;20478;-79
2022/09/23 10:33:46;;;;;;;9.27;5.17;;;14.10;76.10;;;;;;5045180;28;20475;-77
2022/09/23 10:36:15;;;;;;;7.10;4.27;;;14.10;75.90;;;;;;5039534;28;20464;-78
2022/09/23 10:38:44;;;;;;;10.30;4.40;;;14.20;75.80;;;;;;5042970;28;20455;-78
2022/09/23 10:47:28;;;;;;;8.73;4.90;;;14.40;75.50;;;;;;4986302;28;20897;-78
2022/09/23 10:50:19;;;;;;;13.90;5.00;;;14.50;75.10;;;;;;5030753;28;20463;-76
2022/09/23 10:53:04;;;;;;;32.67;5.83;;;14.50;75.10;;;;;;5043610;28;21334;-78
2022/09/23 10:55:42;;;;;;;98.53;10.80;;;14.60;74.70;;;;;;5043234;28;20600;-79
2022/09/23 10:58:48;;;;;;;59.03;7.40;;;14.70;74.40;;;;;;5042640;28;20581;-78
2022/09/23 11:01:26;;;;;;;12.20;7.00;;;14.70;74.20;;;;;;5045194;28;20471;-78
2022/09/23 11:04:16;;;;;;;11.37;5.00;;;14.80;74.00;;;;;;5045203;28;20506;-78
2022/09/23 11:07:06;;;;;;;8.30;4.20;;;14.80;73.80;;;;;;5046390;28;20458;-76
2022/09/23 11:09:50;;;;;;;6.73;4.30;;;14.90;73.70;;;;;;5045952;28;20465;-77
2022/09/23 11:12:32;;;;;;;8.03;4.43;;;14.90;73.40;;;;;;5044707;28;20443;-78
2022/09/23 11:15:17;;;;;;;6.50;3.93;;;15.00;73.00;;;;;;5046327;28;20532;-78
2022/09/23 11:18:06;;;;;;;10.30;5.83;;;15.00;72.60;;;;;;5042597;28;20462;-78
2022/09/23 11:20:44;;;;;;;8.40;3.83;;;15.00;72.30;;;;;;5041745;28;20599;-79
2022/09/23 11:23:43;;;;;;;7.00;4.07;;;15.10;72.00;;;;;;5046560;28;20465;-79
2022/09/23 11:26:27;;;;;;;7.93;4.13;;;15.10;71.70;;;;;;5044304;28;21271;-77
2022/09/23 11:29:33;;;;;;;6.27;3.50;;;15.20;71.60;;;;;;5050171;28;20498;-78
2022/09/23 11:32:18;;;;;;;10.07;4.03;;;15.20;71.40;;;;;;5046544;28;20462;-78
2022/09/23 11:35:02;;;;;;;8.83;4.00;;;15.30;70.90;;;;;;5044539;28;20544;-79
2022/09/23 11:37:34;;;;;;;6.07;3.43;;;15.30;70.90;;;;;;5045236;28;20660;-79
2022/09/23 11:40:11;;;;;;;8.23;3.67;;;15.40;70.60;;;;;;5039279;28;20455;-78
2022/09/23 11:42:47;;;;;;;5.70;3.17;;;15.40;70.40;;;;;;5040741;28;20483;-78
2022/09/23 11:45:18;;;;;;;6.70;3.53;;;15.50;70.20;;;;;;5043835;28;20474;-77
2022/09/23 11:47:52;;;;;;;5.90;3.53;;;15.60;69.90;;;;;;5044927;28;20526;-79
2022/09/23 11:50:26;;;;;;;8.07;5.10;;;15.60;69.60;;;;;;5042352;28;20468;-79
2022/09/23 11:53:02;;;;;;;7.30;4.60;;;15.70;69.30;;;;;;5037310;28;20456;-78
2022/09/23 11:55:35;;;;;;;6.53;4.17;;;15.80;69.20;;;;;;5043833;28;20474;-78
2022/09/23 11:58:10;;;;;;;6.07;3.33;;;15.80;68.90;;;;;;5042030;28;20552;-79
2022/09/23 12:00:57;;;;;;;8.23;4.03;;;15.80;68.80;;;;;;5043920;28;20454;-79
2022/09/23 12:03:39;;;;;;;7.37;4.00;;;15.80;68.70;;;;;;5053916;28;20455;-78
2022/09/23 12:06:14;;;;;;;7.20;4.03;;;15.90;68.40;;;;;;5037842;28;20486;-78
2022/09/23 12:08:43;;;;;;;7.00;3.90;;;15.90;68.10;;;;;;5044574;28;20479;-78
2022/09/23 12:11:24;;;;;;;6.83;3.10;;;15.90;68.20;;;;;;5045024;28;20516;-78
2022/09/23 12:14:01;;;;;;;9.03;3.70;;;16.00;68.00;;;;;;5042292;28;20486;-78
2022/09/23 12:16:47;;;;;;;5.50;3.00;;;16.00;68.00;;;;;;5043364;28;20528;-78
2022/09/23 12:19:30;;;;;;;7.40;3.20;;;16.10;67.90;;;;;;5039602;28;20459;-77
2022/09/23 12:22:11;;;;;;;8.50;2.93;;;16.20;68.00;;;;;;5043536;28;20941;-78
2022/09/23 12:24:47;;;;;;;9.50;4.00;;;16.20;67.90;;;;;;5045964;28;20481;-78
2022/09/23 12:27:29;;;;;;;5.93;3.27;;;16.30;67.80;;;;;;5040911;28;21294;-77
2022/09/23 12:30:01;;;;;;;6.50;3.40;;;16.30;67.50;;;;;;5039621;28;20455;-78
2022/09/23 12:32:30;;;;;;;6.27;3.30;;;16.30;67.40;;;;;;5039431;28;20458;-78
2022/09/23 12:34:59;;;;;;;5.20;2.73;;;16.30;67.20;;;;;;5040445;28;20495;-79
2022/09/23 12:37:33;;;;;;;11.40;6.07;;;16.30;67.10;;;;;;5044417;28;20861;-76
2022/09/23 12:40:07;;;;;;;6.43;3.83;;;16.30;67.30;;;;;;5043675;28;20505;-76
2022/09/23 12:42:44;;;;;;;4.63;2.40;;;16.40;67.40;;;;;;5038302;28;20459;-78
2022/09/23 12:45:34;;;;;;;6.17;3.00;;;16.40;67.40;;;;;;5038713;28;20478;-78
2022/09/23 12:48:04;;;;;;;6.60;2.97;;;16.50;67.30;;;;;;5039398;28;21306;-78
2022/09/23 12:50:52;;;;;;;6.70;3.73;;;16.60;67.30;;;;;;5045047;28;20509;-78
2022/09/23 12:53:56;;;;;;;6.67;2.80;;;16.70;67.30;;;;;;5041589;28;20512;-78
2022/09/23 12:56:49;;;;;;;6.00;3.03;;;16.70;67.00;;;;;;5041140;28;20490;-78
2022/09/23 12:59:29;;;;;;;5.03;2.83;;;16.80;67.10;;;;;;5041695;28;20514;-78
2022/09/23 13:02:09;;;;;;;7.40;3.10;;;16.80;67.00;;;;;;5042298;28;20520;-76
2022/09/23 13:07:48;;;;;;;7.47;2.80;;;16.90;66.90;;;;;;4986565;28;20461;-78
2022/09/23 13:10:23;;;;;;;5.20;2.50;;;16.90;66.50;;;;;;5001777;28;20453;-78
2022/09/23 13:12:52;;;;;;;7.20;3.63;;;16.90;66.40;;;;;;5016141;28;20637;-76
2022/09/23 13:15:28;;;;;;;5.67;3.10;;;16.90;66.40;;;;;;5041937;28;20478;-76
2022/09/23 13:18:45;;;;;;;8.03;3.07;;;16.90;66.20;;;;;;5042342;28;20475;-77
2022/09/23 13:21:18;;;;;;;5.40;2.87;;;16.90;66.20;;;;;;5041773;28;20532;-77
2022/09/23 13:24:17;;;;;;;8.60;3.40;;;16.90;66.10;;;;;;5044244;28;21072;-76
2022/09/23 13:26:46;;;;;;;9.73;3.77;;;17.00;66.00;;;;;;5045374;28;21271;-76
2022/09/23 13:29:19;;;;;;;6.40;3.30;;;17.00;65.90;;;;;;5046052;28;20540;-77